ADDS METAR Data INFO
IDs: Format: Raw Decoded Include TAF

Data at: 0450 UTC 22 Apr 2018

METAR for:KSGH (Springfield Muni, OH, US)
Text:KSGH 220356Z AUTO 05008KT 10SM 07/M03 A3034 RMK AO2 SLP280 T00721033 401391006 $
Temperature: 7.2°C ( 45°F)
Dewpoint: -3.3°C ( 26°F) [RH = 47%]
Pressure (altimeter):30.34 inches Hg (1027.5 mb) [Sea level pressure: 1028.0 mb]
Winds:from the NE (50 degrees) at 9 MPH (8 knots; 4.1 m/s)
Visibility:10 or more sm (16+ km)
QC Flag:automated observation with no human augmentation; SOME DATA ABOVE MAY BE INACCURATE!!!"$" is an indication the sensor requires maintenance.